sensor_id;sensor_type;location;lat;lon;timestamp;pressure;altitude;pressure_sealevel;temperature;humidity
19150;BME280;9707;49.158;8.632;2024-02-14T00:00:08;100846.91;;;19.50;35.16
19150;BME280;9707;49.158;8.632;2024-02-14T00:02:47;100846.13;;;19.48;34.44
19150;BME280;9707;49.158;8.632;2024-02-14T00:05:17;100855.22;;;19.47;34.54
19150;BME280;9707;49.158;8.632;2024-02-14T00:07:43;100858.03;;;19.45;33.81
19150;BME280;9707;49.158;8.632;2024-02-14T00:10:08;100862.69;;;19.43;33.87
19150;BME280;9707;49.158;8.632;2024-02-14T00:12:35;100860.94;;;19.42;35.43
19150;BME280;9707;49.158;8.632;2024-02-14T00:15:03;100860.16;;;19.40;34.56
19150;BME280;9707;49.158;8.632;2024-02-14T00:17:31;100862.03;;;19.40;34.73
19150;BME280;9707;49.158;8.632;2024-02-14T00:19:56;100864.59;;;19.41;34.85
19150;BME280;9707;49.158;8.632;2024-02-14T00:22:21;100860.06;;;19.42;35.53
19150;BME280;9707;49.158;8.632;2024-02-14T00:24:46;100862.78;;;19.42;34.80
19150;BME280;9707;49.158;8.632;2024-02-14T00:27:12;100865.38;;;19.43;34.79
19150;BME280;9707;49.158;8.632;2024-02-14T00:29:40;100863.66;;;19.42;35.09
19150;BME280;9707;49.158;8.632;2024-02-14T00:32:05;100863.66;;;19.42;34.92
19150;BME280;9707;49.158;8.632;2024-02-14T00:34:30;100867.97;;;19.45;35.86
19150;BME280;9707;49.158;8.632;2024-02-14T00:36:56;100879.63;;;19.45;34.50
19150;BME280;9707;49.158;8.632;2024-02-14T00:39:21;100878.78;;;19.45;34.58
19150;BME280;9707;49.158;8.632;2024-02-14T00:41:46;100870.69;;;19.45;34.68
19150;BME280;9707;49.158;8.632;2024-02-14T00:44:12;100876.94;;;19.45;34.51
19150;BME280;9707;49.158;8.632;2024-02-14T00:46:38;100868.81;;;19.45;34.20
19150;BME280;9707;49.158;8.632;2024-02-14T00:49:03;100873.38;;;19.45;34.18
19150;BME280;9707;49.158;8.632;2024-02-14T00:51:29;100872.50;;;19.44;33.94
19150;BME280;9707;49.158;8.632;2024-02-14T00:53:54;100868.81;;;19.45;34.20
19150;BME280;9707;49.158;8.632;2024-02-14T00:56:19;100867.97;;;19.45;33.81
19150;BME280;9707;49.158;8.632;2024-02-14T00:58:44;100867.97;;;19.45;34.11
19150;BME280;9707;49.158;8.632;2024-02-14T01:01:10;100863.53;;;19.44;35.38
19150;BME280;9707;49.158;8.632;2024-02-14T01:03:37;100865.28;;;19.45;34.59
19150;BME280;9707;49.158;8.632;2024-02-14T01:06:02;100860.72;;;19.45;34.56
19150;BME280;9707;49.158;8.632;2024-02-14T01:08:28;100859.88;;;19.45;34.57
19150;BME280;9707;49.158;8.632;2024-02-14T01:10:53;100859.75;;;19.46;34.85
19150;BME280;9707;49.158;8.632;2024-02-14T01:13:19;100854.34;;;19.46;35.30
19150;BME280;9707;49.158;8.632;2024-02-14T01:15:44;100859.75;;;19.46;35.67
19150;BME280;9707;49.158;8.632;2024-02-14T01:18:09;100859.75;;;19.46;34.79
19150;BME280;9707;49.158;8.632;2024-02-14T01:20:35;100855.22;;;19.47;34.35
19150;BME280;9707;49.158;8.632;2024-02-14T01:23:00;100848.09;;;19.46;35.00
19150;BME280;9707;49.158;8.632;2024-02-14T01:25:26;100835.56;;;19.45;34.75
19150;BME280;9707;49.158;8.632;2024-02-14T01:27:51;100843.53;;;19.46;34.63
19150;BME280;9707;49.158;8.632;2024-02-14T01:30:18;100846.13;;;19.48;34.36
19150;BME280;9707;49.158;8.632;2024-02-14T01:32:43;100838.13;;;19.46;35.48
19150;BME280;9707;49.158;8.632;2024-02-14T01:35:08;100833.72;;;19.45;34.92
19150;BME280;9707;49.158;8.632;2024-02-14T01:37:34;100837.28;;;19.46;34.83
19150;BME280;9707;49.158;8.632;2024-02-14T01:40:00;100835.56;;;19.45;35.26
19150;BME280;9707;49.158;8.632;2024-02-14T01:42:25;100831.88;;;19.46;35.24
19150;BME280;9707;49.158;8.632;2024-02-14T01:44:52;100816.50;;;19.46;36.12
19150;BME280;9707;49.158;8.632;2024-02-14T01:47:19;100818.28;;;19.47;35.33
19150;BME280;9707;49.158;8.632;2024-02-14T01:49:45;100817.41;;;19.47;36.16
19150;BME280;9707;49.158;8.632;2024-02-14T01:52:11;100816.41;;;19.48;35.30
19150;BME280;9707;49.158;8.632;2024-02-14T01:54:36;100806.59;;;19.47;34.92
19150;BME280;9707;49.158;8.632;2024-02-14T01:57:01;100811.00;;;19.48;34.96
19150;BME280;9707;49.158;8.632;2024-02-14T01:59:27;100805.63;;;19.48;35.17
19150;BME280;9707;49.158;8.632;2024-02-14T02:01:53;100792.09;;;19.48;35.96
19150;BME280;9707;49.158;8.632;2024-02-14T02:04:18;100794.81;;;19.48;34.69
19150;BME280;9707;49.158;8.632;2024-02-14T02:06:44;100792.09;;;19.48;34.66
19150;BME280;9707;49.158;8.632;2024-02-14T02:09:09;100786.69;;;19.48;34.38
19150;BME280;9707;49.158;8.632;2024-02-14T02:11:51;100782.16;;;19.48;35.17
19150;BME280;9707;49.158;8.632;2024-02-14T02:14:16;100785.84;;;19.47;35.62
19150;BME280;9707;49.158;8.632;2024-02-14T02:16:42;100779.56;;;19.47;34.97
19150;BME280;9707;49.158;8.632;2024-02-14T02:19:08;100775.03;;;19.47;35.90
19150;BME280;9707;49.158;8.632;2024-02-14T02:21:37;100784.00;;;19.48;36.39
19150;BME280;9707;49.158;8.632;2024-02-14T02:24:03;100782.16;;;19.48;35.06
19150;BME280;9707;49.158;8.632;2024-02-14T02:26:28;100781.28;;;19.48;35.90
19150;BME280;9707;49.158;8.632;2024-02-14T02:28:54;100778.50;;;19.49;35.89
19150;BME280;9707;49.158;8.632;2024-02-14T02:31:20;100772.22;;;19.49;34.87
19150;BME280;9707;49.158;8.632;2024-02-14T02:33:45;100779.47;;;19.48;34.45
19150;BME280;9707;49.158;8.632;2024-02-14T02:36:11;100773.19;;;19.48;35.37
19150;BME280;9707;49.158;8.632;2024-02-14T02:38:36;100771.47;;;19.47;36.11
19150;BME280;9707;49.158;8.632;2024-02-14T02:41:02;100773.84;;;19.51;35.31
19150;BME280;9707;49.158;8.632;2024-02-14T02:43:31;100768.56;;;19.50;35.81
19150;BME280;9707;49.158;8.632;2024-02-14T02:45:56;100769.50;;;19.49;35.79
19150;BME280;9707;49.158;8.632;2024-02-14T02:48:23;100780.31;;;19.49;34.89
19150;BME280;9707;49.158;8.632;2024-02-14T02:50:49;100781.38;;;19.46;34.71
19150;BME280;9707;49.158;8.632;2024-02-14T02:53:15;100776.97;;;19.45;34.36
19150;BME280;9707;49.158;8.632;2024-02-14T02:55:40;100785.94;;;19.46;34.87
19150;BME280;9707;49.158;8.632;2024-02-14T02:58:06;100793.19;;;19.45;36.07
19150;BME280;9707;49.158;8.632;2024-02-14T03:00:32;100794.91;;;19.46;36.21
19150;BME280;9707;49.158;8.632;2024-02-14T03:02:57;100780.53;;;19.46;36.70
19150;BME280;9707;49.158;8.632;2024-02-14T03:05:23;100783.25;;;19.46;35.37
19150;BME280;9707;49.158;8.632;2024-02-14T03:07:49;100791.25;;;19.47;35.52
19150;BME280;9707;49.158;8.632;2024-02-14T03:10:16;100784.00;;;19.48;35.68
19150;BME280;9707;49.158;8.632;2024-02-14T03:12:45;100797.50;;;19.48;35.11
19150;BME280;9707;49.158;8.632;2024-02-14T03:15:11;100786.69;;;19.48;35.20
19150;BME280;9707;49.158;8.632;2024-02-14T03:17:38;100786.69;;;19.48;36.34
19150;BME280;9707;49.158;8.632;2024-02-14T03:20:04;100784.78;;;19.50;35.64
19150;BME280;9707;49.158;8.632;2024-02-14T03:22:35;100796.53;;;19.49;35.35
19150;BME280;9707;49.158;8.632;2024-02-14T03:25:00;100785.84;;;19.47;35.15
19150;BME280;9707;49.158;8.632;2024-02-14T03:27:26;100797.50;;;19.48;34.74
19150;BME280;9707;49.158;8.632;2024-02-14T03:29:52;100790.38;;;19.47;34.61
19150;BME280;9707;49.158;8.632;2024-02-14T03:32:17;100790.47;;;19.45;35.86
19150;BME280;9707;49.158;8.632;2024-02-14T03:34:42;100796.75;;;19.46;36.15
19150;BME280;9707;49.158;8.632;2024-02-14T03:37:08;100798.47;;;19.47;36.84
19150;BME280;9707;49.158;8.632;2024-02-14T03:39:33;100802.06;;;19.47;36.90
19150;BME280;9707;49.158;8.632;2024-02-14T03:41:58;100788.41;;;19.49;37.10
19150;BME280;9707;49.158;8.632;2024-02-14T03:44:27;100791.03;;;19.50;37.10
19150;BME280;9707;49.158;8.632;2024-02-14T03:46:53;100798.94;;;19.53;36.96
19150;BME280;9707;49.158;8.632;2024-02-14T03:49:18;100802.47;;;19.54;36.82
19150;BME280;9707;49.158;8.632;2024-02-14T03:51:45;100804.25;;;19.55;36.71
19150;BME280;9707;49.158;8.632;2024-02-14T03:54:10;100798.84;;;19.55;36.92
19150;BME280;9707;49.158;8.632;2024-02-14T03:56:36;100806.81;;;19.56;36.98
19150;BME280;9707;49.158;8.632;2024-02-14T03:59:02;100814.06;;;19.56;35.83
19150;BME280;9707;49.158;8.632;2024-02-14T04:01:30;100804.25;;;19.55;35.47
19150;BME280;9707;49.158;8.632;2024-02-14T04:03:56;100815.06;;;19.55;34.89
19150;BME280;9707;49.158;8.632;2024-02-14T04:06:21;100811.56;;;19.53;35.13
19150;BME280;9707;49.158;8.632;2024-02-14T04:08:46;100814.38;;;19.51;34.90
19150;BME280;9707;49.158;8.632;2024-02-14T04:11:12;100813.53;;;19.51;34.83
19150;BME280;9707;49.158;8.632;2024-02-14T04:13:38;100815.34;;;19.50;35.46
19150;BME280;9707;49.158;8.632;2024-02-14T04:16:04;100816.97;;;19.53;35.36
19150;BME280;9707;49.158;8.632;2024-02-14T04:18:29;100820.66;;;19.52;36.46
19150;BME280;9707;49.158;8.632;2024-02-14T04:20:54;100820.56;;;19.53;36.57
19150;BME280;9707;49.158;8.632;2024-02-14T04:23:19;100816.13;;;19.52;36.72
19150;BME280;9707;49.158;8.632;2024-02-14T04:25:45;100817.75;;;19.55;36.82
19150;BME280;9707;49.158;8.632;2024-02-14T04:28:10;100822.19;;;19.56;37.02
19150;BME280;9707;49.158;8.632;2024-02-14T04:30:37;100818.50;;;19.57;35.45
19150;BME280;9707;49.158;8.632;2024-02-14T04:33:03;100815.78;;;19.57;36.23
19150;BME280;9707;49.158;8.632;2024-02-14T04:35:29;100807.69;;;19.57;36.74
19150;BME280;9707;49.158;8.632;2024-02-14T04:37:55;100814.06;;;19.56;35.38
19150;BME280;9707;49.158;8.632;2024-02-14T04:40:20;100821.28;;;19.55;35.28
19150;BME280;9707;49.158;8.632;2024-02-14T04:42:46;100820.44;;;19.55;35.84
19150;BME280;9707;49.158;8.632;2024-02-14T04:45:11;100807.03;;;19.53;35.87
19150;BME280;9707;49.158;8.632;2024-02-14T04:47:36;100819.56;;;19.54;35.22
19150;BME280;9707;49.158;8.632;2024-02-14T04:50:02;100825.94;;;19.53;35.15
19150;BME280;9707;49.158;8.632;2024-02-14T04:52:29;100821.41;;;19.54;35.45
19150;BME280;9707;49.158;8.632;2024-02-14T04:54:54;100816.00;;;19.54;36.33
19150;BME280;9707;49.158;8.632;2024-02-14T04:57:21;100819.47;;;19.56;35.75
19150;BME280;9707;49.158;8.632;2024-02-14T04:59:46;100827.59;;;19.56;35.22
19150;BME280;9707;49.158;8.632;2024-02-14T05:02:11;100820.44;;;19.55;34.98
19150;BME280;9707;49.158;8.632;2024-02-14T05:04:37;100812.34;;;19.55;35.95
19150;BME280;9707;49.158;8.632;2024-02-14T05:07:03;100823.03;;;19.56;35.26
19150;BME280;9707;49.158;8.632;2024-02-14T05:09:29;100818.50;;;19.57;35.77
19150;BME280;9707;49.158;8.632;2024-02-14T05:11:54;100818.50;;;19.57;35.29
19150;BME280;9707;49.158;8.632;2024-02-14T05:14:19;100819.38;;;19.57;35.99
19150;BME280;9707;49.158;8.632;2024-02-14T05:16:44;100825.63;;;19.58;36.27
19150;BME280;9707;49.158;8.632;2024-02-14T05:19:10;100825.63;;;19.58;35.74
19150;BME280;9707;49.158;8.632;2024-02-14T05:21:35;100820.13;;;19.59;35.62
19150;BME280;9707;49.158;8.632;2024-02-14T05:24:01;100821.09;;;19.58;35.65
19150;BME280;9707;49.158;8.632;2024-02-14T05:26:26;100824.66;;;19.59;35.20
19150;BME280;9707;49.158;8.632;2024-02-14T05:28:52;100821.94;;;19.59;36.12
19150;BME280;9707;49.158;8.632;2024-02-14T05:31:17;100816.53;;;19.59;36.09
19150;BME280;9707;49.158;8.632;2024-02-14T05:33:42;100812.00;;;19.59;35.01
19150;BME280;9707;49.158;8.632;2024-02-14T05:36:08;100809.31;;;19.59;35.62
19150;BME280;9707;49.158;8.632;2024-02-14T05:38:34;100808.44;;;19.59;36.31
19150;BME280;9707;49.158;8.632;2024-02-14T05:40:59;100802.84;;;19.62;35.50
19150;BME280;9707;49.158;8.632;2024-02-14T05:43:25;100801.84;;;19.63;36.42
19150;BME280;9707;49.158;8.632;2024-02-14T05:45:51;100812.66;;;19.63;35.41
19150;BME280;9707;49.158;8.632;2024-02-14T05:48:19;100802.84;;;19.62;34.89
19150;BME280;9707;49.158;8.632;2024-02-14T05:50:44;100803.81;;;19.61;34.97
19150;BME280;9707;49.158;8.632;2024-02-14T05:53:09;100802.09;;;19.60;35.11
19150;BME280;9707;49.158;8.632;2024-02-14T05:55:35;100801.31;;;19.58;34.83
19150;BME280;9707;49.158;8.632;2024-02-14T05:58:00;100811.38;;;19.56;34.72
19150;BME280;9707;49.158;8.632;2024-02-14T06:00:25;100823.91;;;19.57;35.65
19150;BME280;9707;49.158;8.632;2024-02-14T06:02:50;100821.19;;;19.57;35.40
19150;BME280;9707;49.158;8.632;2024-02-14T06:05:16;100822.91;;;19.58;34.91
19150;BME280;9707;49.158;8.632;2024-02-14T06:07:42;100832.75;;;19.59;35.27
19150;BME280;9707;49.158;8.632;2024-02-14T06:10:10;100834.50;;;19.60;35.88
19150;BME280;9707;49.158;8.632;2024-02-14T06:12:35;100830.94;;;19.59;36.52
19150;BME280;9707;49.158;8.632;2024-02-14T06:15:01;100845.19;;;19.61;35.51
19150;BME280;9707;49.158;8.632;2024-02-14T06:17:26;100839.91;;;19.60;36.25
19150;BME280;9707;49.158;8.632;2024-02-14T06:19:52;100858.59;;;19.63;36.79
19150;BME280;9707;49.158;8.632;2024-02-14T06:22:18;100864.78;;;19.65;36.42
19150;BME280;9707;49.158;8.632;2024-02-14T06:24:43;100851.16;;;19.66;36.60
19150;BME280;9707;49.158;8.632;2024-02-14T06:27:08;100851.06;;;19.68;36.15
19150;BME280;9707;49.158;8.632;2024-02-14T06:29:34;100862.84;;;19.67;35.21
19150;BME280;9707;49.158;8.632;2024-02-14T06:31:59;100866.53;;;19.66;34.94
19150;BME280;9707;49.158;8.632;2024-02-14T06:34:24;100868.44;;;19.64;34.96
19150;BME280;9707;49.158;8.632;2024-02-14T06:36:51;100859.50;;;19.63;34.91
19150;BME280;9707;49.158;8.632;2024-02-14T06:39:16;100873.09;;;19.62;34.90
19150;BME280;9707;49.158;8.632;2024-02-14T06:41:41;100869.50;;;19.61;35.43
19150;BME280;9707;49.158;8.632;2024-02-14T06:44:07;100869.66;;;19.60;35.22
19150;BME280;9707;49.158;8.632;2024-02-14T06:46:32;100869.41;;;19.63;34.86
19150;BME280;9707;49.158;8.632;2024-02-14T06:48:57;100882.94;;;19.63;34.87
19150;BME280;9707;49.158;8.632;2024-02-14T06:51:23;100882.19;;;19.61;34.84
19150;BME280;9707;49.158;8.632;2024-02-14T06:53:51;100877.75;;;19.60;35.28
19150;BME280;9707;49.158;8.632;2024-02-14T06:56:17;100872.34;;;19.60;35.26
19150;BME280;9707;49.158;8.632;2024-02-14T06:58:42;100884.00;;;19.60;36.46
19150;BME280;9707;49.158;8.632;2024-02-14T07:01:07;100883.03;;;19.61;35.19
19150;BME280;9707;49.158;8.632;2024-02-14T07:03:33;100889.50;;;19.59;34.48
19150;BME280;9707;49.158;8.632;2024-02-14T07:05:58;100881.63;;;19.56;33.69
19150;BME280;9707;49.158;8.632;2024-02-14T07:08:24;100885.31;;;19.55;35.18
19150;BME280;9707;49.158;8.632;2024-02-14T07:10:51;100891.66;;;19.54;35.89
19150;BME280;9707;49.158;8.632;2024-02-14T07:13:16;100899.66;;;19.55;35.60
19150;BME280;9707;49.158;8.632;2024-02-14T07:15:42;100908.66;;;19.56;35.41
19150;BME280;9707;49.158;8.632;2024-02-14T07:18:08;100908.66;;;19.56;35.23
19150;BME280;9707;49.158;8.632;2024-02-14T07:20:35;100904.09;;;19.56;35.45
19150;BME280;9707;49.158;8.632;2024-02-14T07:23:00;100905.84;;;19.57;35.53
19150;BME280;9707;49.158;8.632;2024-02-14T07:25:25;100898.69;;;19.56;35.06
19150;BME280;9707;49.158;8.632;2024-02-14T07:27:51;100895.88;;;19.58;35.66
19150;BME280;9707;49.158;8.632;2024-02-14T07:30:16;100906.50;;;19.61;36.05
19150;BME280;9707;49.158;8.632;2024-02-14T07:32:43;100903.81;;;19.61;35.69
19150;BME280;9707;49.158;8.632;2024-02-14T07:35:08;100904.66;;;19.61;35.58
19150;BME280;9707;49.158;8.632;2024-02-14T07:37:34;100907.25;;;19.63;35.50
19150;BME280;9707;49.158;8.632;2024-02-14T07:39:59;100915.38;;;19.63;35.50
19150;BME280;9707;49.158;8.632;2024-02-14T07:42:24;100902.81;;;19.62;35.49
19150;BME280;9707;49.158;8.632;2024-02-14T07:44:49;100912.66;;;19.63;35.94
19150;BME280;9707;49.158;8.632;2024-02-14T07:47:15;100917.09;;;19.64;35.53
19150;BME280;9707;49.158;8.632;2024-02-14T07:49:40;100913.44;;;19.65;35.44
19150;BME280;9707;49.158;8.632;2024-02-14T07:52:06;100921.56;;;19.65;35.76
19150;BME280;9707;49.158;8.632;2024-02-14T07:54:31;100917.09;;;19.64;35.87
19150;BME280;9707;49.158;8.632;2024-02-14T07:56:57;100919.69;;;19.65;35.82
19150;BME280;9707;49.158;8.632;2024-02-14T07:59:22;100917.97;;;19.64;36.26
19150;BME280;9707;49.158;8.632;2024-02-14T08:01:47;100917.09;;;19.64;36.00
19150;BME280;9707;49.158;8.632;2024-02-14T08:04:13;100926.97;;;19.65;35.73
19150;BME280;9707;49.158;8.632;2024-02-14T08:06:38;100927.91;;;19.64;35.56
19150;BME280;9707;49.158;8.632;2024-02-14T08:09:03;100917.09;;;19.64;36.02
19150;BME280;9707;49.158;8.632;2024-02-14T08:11:31;100915.16;;;19.66;36.12
19150;BME280;9707;49.158;8.632;2024-02-14T08:13:57;100917.97;;;19.64;35.79
19150;BME280;9707;49.158;8.632;2024-02-14T08:16:23;100919.59;;;19.67;36.15
19150;BME280;9707;49.158;8.632;2024-02-14T08:18:48;100926.72;;;19.68;36.02
19150;BME280;9707;49.158;8.632;2024-02-14T08:21:16;100926.72;;;19.68;35.81
19150;BME280;9707;49.158;8.632;2024-02-14T08:23:41;100919.59;;;19.67;35.71
19150;BME280;9707;49.158;8.632;2024-02-14T08:26:07;100925.00;;;19.67;35.78
19150;BME280;9707;49.158;8.632;2024-02-14T08:28:36;100925.00;;;19.67;35.58
19150;BME280;9707;49.158;8.632;2024-02-14T08:31:01;100931.38;;;19.66;35.81
19150;BME280;9707;49.158;8.632;2024-02-14T08:33:26;100922.41;;;19.65;35.96
19150;BME280;9707;49.158;8.632;2024-02-14T08:35:52;100926.81;;;19.66;35.95
19150;BME280;9707;49.158;8.632;2024-02-14T08:38:19;100928.78;;;19.64;35.76
19150;BME280;9707;49.158;8.632;2024-02-14T08:40:45;100929.66;;;19.65;35.82
19150;BME280;9707;49.158;8.632;2024-02-14T08:43:10;100928.69;;;19.66;35.68
19150;BME280;9707;49.158;8.632;2024-02-14T08:45:36;100926.97;;;19.65;35.68
19150;BME280;9707;49.158;8.632;2024-02-14T08:48:03;100926.97;;;19.65;35.59
19150;BME280;9707;49.158;8.632;2024-02-14T08:50:28;100928.69;;;19.66;35.70
19150;BME280;9707;49.158;8.632;2024-02-14T08:52:55;100933.22;;;19.65;35.55
19150;BME280;9707;49.158;8.632;2024-02-14T08:55:20;100925.88;;;19.67;35.85
19150;BME280;9707;49.158;8.632;2024-02-14T08:57:46;100924.03;;;19.68;35.66
19150;BME280;9707;49.158;8.632;2024-02-14T09:00:13;100923.06;;;19.69;35.35
19150;BME280;9707;49.158;8.632;2024-02-14T09:02:40;100928.34;;;19.70;35.29
19150;BME280;9707;49.158;8.632;2024-02-14T09:05:06;100922.09;;;19.70;35.18
19150;BME280;9707;49.158;8.632;2024-02-14T09:07:31;100920.16;;;19.72;35.68
19150;BME280;9707;49.158;8.632;2024-02-14T09:09:58;100930.00;;;19.73;35.42
19150;BME280;9707;49.158;8.632;2024-02-14T09:12:24;100929.00;;;19.74;35.17
19150;BME280;9707;49.158;8.632;2024-02-14T09:14:49;100924.50;;;19.74;35.18
19150;BME280;9707;49.158;8.632;2024-02-14T09:17:15;100921.78;;;19.74;35.33
19150;BME280;9707;49.158;8.632;2024-02-14T09:19:40;100921.88;;;19.73;35.21
19150;BME280;9707;49.158;8.632;2024-02-14T09:22:06;100927.09;;;19.76;35.22
19150;BME280;9707;49.158;8.632;2024-02-14T09:24:32;100923.41;;;19.77;35.18
19150;BME280;9707;49.158;8.632;2024-02-14T09:26:57;100931.53;;;19.77;34.82
19150;BME280;9707;49.158;8.632;2024-02-14T09:29:22;100925.13;;;19.78;35.28
19150;BME280;9707;49.158;8.632;2024-02-14T09:31:50;100914.31;;;19.78;35.00
19150;BME280;9707;49.158;8.632;2024-02-14T09:34:16;100918.75;;;19.79;35.24
19150;BME280;9707;49.158;8.632;2024-02-14T09:36:43;100912.38;;;19.80;35.20
19150;BME280;9707;49.158;8.632;2024-02-14T09:39:08;100912.38;;;19.80;34.99
19150;BME280;9707;49.158;8.632;2024-02-14T09:41:40;100914.97;;;19.81;35.46
19150;BME280;9707;49.158;8.632;2024-02-14T09:44:08;100913.16;;;19.82;35.15
19150;BME280;9707;49.158;8.632;2024-02-14T09:46:35;100918.47;;;19.83;35.17
19150;BME280;9707;49.158;8.632;2024-02-14T09:49:01;100907.50;;;19.85;34.98
19150;BME280;9707;49.158;8.632;2024-02-14T09:51:28;100912.91;;;19.85;34.89
19150;BME280;9707;49.158;8.632;2024-02-14T09:53:54;100920.09;;;19.86;34.82
19150;BME280;9707;49.158;8.632;2024-02-14T09:56:21;100919.84;;;19.89;35.31
19150;BME280;9707;49.158;8.632;2024-02-14T09:58:49;100923.44;;;19.89;35.07
19150;BME280;9707;49.158;8.632;2024-02-14T10:01:22;100918.88;;;19.90;34.89
19150;BME280;9707;49.158;8.632;2024-02-14T10:03:50;100929.50;;;19.93;34.95
19150;BME280;9707;49.158;8.632;2024-02-14T10:06:15;100930.38;;;19.93;34.55
19150;BME280;9707;49.158;8.632;2024-02-14T10:08:41;100918.69;;;19.93;34.67
19150;BME280;9707;49.158;8.632;2024-02-14T10:11:08;100922.38;;;19.92;34.97
19150;BME280;9707;49.158;8.632;2024-02-14T10:13:33;100912.28;;;19.94;34.78
19150;BME280;9707;49.158;8.632;2024-02-14T10:15:59;100917.59;;;19.95;34.97
19150;BME280;9707;49.158;8.632;2024-02-14T10:18:25;100921.19;;;19.96;35.22
19150;BME280;9707;49.158;8.632;2024-02-14T10:20:55;100930.16;;;19.96;35.33
19150;BME280;9707;49.158;8.632;2024-02-14T10:23:21;100938.06;;;19.99;35.46
19150;BME280;9707;49.158;8.632;2024-02-14T10:25:48;100943.38;;;20.01;35.54
19150;BME280;9707;49.158;8.632;2024-02-14T10:28:15;100939.69;;;20.02;35.63
19150;BME280;9707;49.158;8.632;2024-02-14T10:30:45;100944.88;;;20.05;35.40
19150;BME280;9707;49.158;8.632;2024-02-14T10:33:10;100947.56;;;20.05;35.64
19150;BME280;9707;49.158;8.632;2024-02-14T10:35:37;100951.94;;;20.07;35.47
19150;BME280;9707;49.158;8.632;2024-02-14T10:38:03;100952.03;;;20.06;35.53
19150;BME280;9707;49.158;8.632;2024-02-14T10:40:31;100953.69;;;20.08;35.62
19150;BME280;9707;49.158;8.632;2024-02-14T10:42:57;100960.94;;;20.08;35.64
19150;BME280;9707;49.158;8.632;2024-02-14T10:45:26;100958.97;;;20.10;35.37
19150;BME280;9707;49.158;8.632;2024-02-14T10:47:53;100967.22;;;20.08;35.72
19150;BME280;9707;49.158;8.632;2024-02-14T10:50:21;100975.22;;;20.10;35.79
19150;BME280;9707;49.158;8.632;2024-02-14T10:52:48;100979.66;;;20.11;35.91
19150;BME280;9707;49.158;8.632;2024-02-14T10:55:15;100977.81;;;20.11;36.02
19150;BME280;9707;49.158;8.632;2024-02-14T10:57:42;100964.38;;;20.10;36.18
19150;BME280;9707;49.158;8.632;2024-02-14T11:00:10;100964.38;;;20.10;35.98
19150;BME280;9707;49.158;8.632;2024-02-14T11:02:38;100958.97;;;20.10;35.98
19150;BME280;9707;49.158;8.632;2024-02-14T11:05:05;100957.16;;;20.10;36.25
19150;BME280;9707;49.158;8.632;2024-02-14T11:07:32;100963.44;;;20.11;36.17
19150;BME280;9707;49.158;8.632;2024-02-14T11:12:33;100963.44;;;20.11;35.96
19150;BME280;9707;49.158;8.632;2024-02-14T11:15:00;100967.00;;;20.11;36.08
19150;BME280;9707;49.158;8.632;2024-02-14T11:17:26;100961.47;;;20.13;35.41
19150;BME280;9707;49.158;8.632;2024-02-14T11:19:52;100962.47;;;20.12;35.14
19150;BME280;9707;49.158;8.632;2024-02-14T11:22:19;100960.75;;;20.11;35.57
19150;BME280;9707;49.158;8.632;2024-02-14T11:24:46;100955.31;;;20.11;35.61
19150;BME280;9707;49.158;8.632;2024-02-14T11:27:12;100960.75;;;20.11;35.48
19150;BME280;9707;49.158;8.632;2024-02-14T11:29:41;100947.22;;;20.11;35.47
19150;BME280;9707;49.158;8.632;2024-02-14T11:32:17;100951.63;;;20.12;35.48
19150;BME280;9707;49.158;8.632;2024-02-14T11:34:43;100946.22;;;20.12;35.40
19150;BME280;9707;49.158;8.632;2024-02-14T11:37:09;100949.69;;;20.14;35.56
19150;BME280;9707;49.158;8.632;2024-02-14T11:39:34;100935.19;;;20.15;35.38
19150;BME280;9707;49.158;8.632;2024-02-14T11:42:00;100945.16;;;20.14;35.46
19150;BME280;9707;49.158;8.632;2024-02-14T11:44:29;100948.72;;;20.15;35.77
19150;BME280;9707;49.158;8.632;2024-02-14T11:46:54;100954.00;;;20.16;35.62
19150;BME280;9707;49.158;8.632;2024-02-14T11:49:20;100954.00;;;20.16;35.64
19150;BME280;9707;49.158;8.632;2024-02-14T11:51:46;100956.63;;;20.18;35.88
19150;BME280;9707;49.158;8.632;2024-02-14T11:54:11;100948.50;;;20.18;35.79
19150;BME280;9707;49.158;8.632;2024-02-14T11:56:37;100947.53;;;20.19;35.83
19150;BME280;9707;49.158;8.632;2024-02-14T11:59:04;100947.53;;;20.19;35.82
19150;BME280;9707;49.158;8.632;2024-02-14T12:01:33;100937.69;;;20.18;35.64
19150;BME280;9707;49.158;8.632;2024-02-14T12:04:00;100937.59;;;20.19;35.85
19150;BME280;9707;49.158;8.632;2024-02-14T12:06:27;100943.84;;;20.20;35.78
19150;BME280;9707;49.158;8.632;2024-02-14T12:08:53;100937.59;;;20.19;36.05
19150;BME280;9707;49.158;8.632;2024-02-14T12:11:19;100935.72;;;20.20;35.93
19150;BME280;9707;49.158;8.632;2024-02-14T12:13:49;100931.19;;;20.20;35.98
19150;BME280;9707;49.158;8.632;2024-02-14T12:16:14;100922.97;;;20.22;36.09
19150;BME280;9707;49.158;8.632;2024-02-14T12:18:41;100910.44;;;20.21;35.96
19150;BME280;9707;49.158;8.632;2024-02-14T12:21:06;100910.44;;;20.21;36.00
19150;BME280;9707;49.158;8.632;2024-02-14T12:23:35;100911.19;;;20.23;36.12
19150;BME280;9707;49.158;8.632;2024-02-14T12:26:04;100908.38;;;20.24;36.28
19150;BME280;9707;49.158;8.632;2024-02-14T12:28:31;100898.41;;;20.25;36.29
19150;BME280;9707;49.158;8.632;2024-02-14T12:30:57;100895.59;;;20.26;36.07
19150;BME280;9707;49.158;8.632;2024-02-14T12:33:23;100901.88;;;20.27;36.43
19150;BME280;9707;49.158;8.632;2024-02-14T12:35:49;100903.41;;;20.31;36.47
19150;BME280;9707;49.158;8.632;2024-02-14T12:38:17;100896.13;;;20.31;36.38
19150;BME280;9707;49.158;8.632;2024-02-14T12:40:43;100887.16;;;20.31;36.44
19150;BME280;9707;49.158;8.632;2024-02-14T12:43:09;100887.91;;;20.33;36.44
19150;BME280;9707;49.158;8.632;2024-02-14T12:45:36;100881.53;;;20.34;36.64
19150;BME280;9707;49.158;8.632;2024-02-14T12:48:01;100893.13;;;20.36;36.46
19150;BME280;9707;49.158;8.632;2024-02-14T12:50:27;100885.84;;;20.36;36.63
19150;BME280;9707;49.158;8.632;2024-02-14T12:52:52;100886.72;;;20.37;36.56
19150;BME280;9707;49.158;8.632;2024-02-14T12:55:17;100885.75;;;20.38;36.76